NCAR-RAP Real-Time Weather Data

Output produced by METARs form (12 May 2021  12:22 UTC)
found at http://weather.rap.ucar.edu/surface/
 
KSLC 121154Z AUTO 14006KT 10SM CLR 08/M02 A3019 RMK AO2 SLP200 T00781022 10106 20078 53006
KSLC 121054Z 15006KT 10SM CLR 08/M02 A3018 RMK AO2 SLP197 T00831022
KSLC 120954Z 14006KT 10SM CLR 09/M03 A3017 RMK AO2 SLP193 T00891033
KSLC 120854Z 16007KT 10SM CLR 09/M04 A3017 RMK AO2 SLP193 T00891039 50004
KSLC 120754Z 17004KT 10SM CLR 09/M04 A3017 RMK AO2 SLP194 T00891039
KSLC 120654Z 15005KT 10SM FEW080 10/M04 A3017 RMK AO2 SLP193 T01001044 401780050
KSLC 120554Z 18005KT 10SM FEW080 10/M04 A3016 RMK AO2 SLP191 T01001039 10178 20100 51006
KSLC 120454Z 17004KT 10SM FEW080 12/M04 A3016 RMK AO2 SLP188 T01171039
KSLC 120354Z 00000KT 10SM FEW080 14/M04 A3015 RMK AO2 SLP185 T01391039
KSLC 120254Z 25005KT 10SM FEW080 14/M04 A3014 RMK AO2 SLP182 T01441044 53001
KSLC 120154Z 25004KT 10SM FEW080 16/M06 A3013 RMK AO2 SLP181 T01561056
KSLC 120054Z 28009KT 10SM FEW080 FEW200 17/M07 A3013 RMK AO2 SLP182 T01671067
KSLC 112354Z 32009KT 10SM FEW080 SCT200 17/M09 A3013 RMK AO2 SLP182 T01721089 10178 20133 56007
KSLC 112254Z 32006KT 10SM FEW080 SCT200 SCT250 17/M04 A3014 RMK AO2 SLP183 T01721039
KSLC 112154Z VRB04KT 10SM FEW080 SCT200 BKN250 16/M03 A3014 RMK AO2 SLP185 T01611033